Terminal Aerodrome Forecast
Issued by NWS Mobile, AL

Home | Current Version | Previous Version | Text Only | Print | Product List | Glossary On
Versions: 1 2 3 4 5 6 7 8 9 10 11 12 13 14 15 16 17 18 19 20 21 22 23 24 25 26
000
FTUS44 KMOB 280524
TAFMOB
TAF
KMOB 280524Z 2806/2906 05005KT P6SM FEW030 BKN250
     FM281200 07005KT P6SM SCT050 OVC100
      TEMPO 2815/2819 P6SM -TSRA BKN050CB
     FM282100 14011KT P6SM VCTS BKN015CB=

USA.gov is the U.S. government's official web portal to all federal, state and local government web resources and services.